Long Beach, CA (90745)

11:19 AM PDT on August 31, 2015 (GMT -0700)
Near Western/Lomita | | Change Station
CLOSE
Current Station
Personal Weather Station
Location: Harbor City, CA
Elevation: 90 ft
Nearby Weather Stations

Elev 90 ft 33.80 °N, 118.30 °W | Updated 4 minutes ago

Overcast
Overcast
76.2 °F
Feels Like 78 °F
N
3.0
Wind Variable Wind from SSE
Gusts 7.0 mph

Today
High -- | Low -- °F
--% Chance of Precip.
Yesterday
High -- | Low -- °F
Precip. -- in
6:26 AM 7:20 PM
Waning Gibbous, 94% visible
Pressure 29.93 in
Visibility 10.0 miles
Clouds Scattered Clouds 2100 ft
Heat Index 78 °F
Dew Point 64 °F
Humidity 65%
Rainfall 0.00 in
Snow Depth Not available.
UV 6 out of 12
Pollen 7.20 out of 12
Air Quality Not available.
Flu Activity Not available.
METAR KLGB 311753Z 16009KT 10SM SCT021 24/17 A2993 RMK AO2 SLP134 T02390167 10239 20217 51013
Pressure 29.93 in
Visibility 10.0 miles
Clouds Scattered Clouds 2100 ft
Heat Index 78 °F
Dew Point 64 °F
Humidity 65%
Rainfall 0.00 in
Snow Depth Not available.
UV 6 out of 12
Pollen 7.20 out of 12
Air Quality Not available.
Flu Activity Not available.
METAR KLGB 311753Z 16009KT 10SM SCT021 24/17 A2993 RMK AO2 SLP134 T02390167 10239 20217 51013

10-Day Weather Forecast

×

Almanac

Astronomy

Aug. 31, 2015 Rise Set
Actual Time
Civil Twilight
Nautical Twilight
Astronomical Twilight
Moon
Length of Visible Light
Length of Day
Tomorrow will be .
, % of the Moon is Illuminated

Today's Extremes

State Highs State Lows

Community

WunderPhotos

Upload Photos

1,851,327 photos uploaded!

WunderBlogs® & News

Nearby

Air Quality

  Air Quality AQ Index Pollutant
Not available.

Snow Depth

Station Depth Elevation

Earthquake Activity

City Distance Mag. Time & Date
Minimum magnitude displayed is 2.5.

Coastal Water Temperatures

Place Temperature

Stations

Nearby Weather Stations

Station Location Temp. Windchill Dew Point Humidity Wind Precip. Elev Updated Type